createdAt,value
2023-08-06T00:01:04.128Z,19.54
2023-08-06T00:03:33.363Z,19.57
2023-08-06T00:06:02.526Z,19.56
2023-08-06T00:08:31.646Z,19.52
2023-08-06T00:11:00.876Z,19.56
2023-08-06T00:13:30.042Z,19.49
2023-08-06T00:16:12.188Z,19.53
2023-08-06T00:18:42.059Z,19.47
2023-08-06T00:21:13.718Z,19.56
2023-08-06T00:23:43.779Z,19.45
2023-08-06T00:26:12.977Z,19.52
2023-08-06T00:28:42.172Z,19.51
2023-08-06T00:31:12.764Z,19.51
2023-08-06T00:33:41.890Z,19.44
2023-08-06T00:36:11.060Z,19.45
2023-08-06T00:38:40.125Z,19.52
2023-08-06T00:41:09.463Z,19.46
2023-08-06T00:43:39.829Z,19.51
2023-08-06T00:46:09.292Z,19.54
2023-08-06T00:48:40.165Z,19.45
2023-08-06T00:51:11.891Z,19.47
2023-08-06T00:53:42.198Z,19.46
2023-08-06T00:56:12.453Z,19.43
2023-08-06T00:58:42.381Z,19.47
2023-08-06T01:01:11.861Z,19.51
2023-08-06T01:03:42.672Z,19.48
2023-08-06T01:06:12.276Z,19.40
2023-08-06T01:08:56.395Z,19.42
2023-08-06T01:11:35.980Z,19.46
2023-08-06T01:14:15.945Z,19.48
2023-08-06T01:16:46.757Z,19.47
2023-08-06T01:19:20.613Z,19.58
2023-08-06T01:21:51.372Z,19.50
2023-08-06T01:24:20.890Z,19.48
2023-08-06T01:27:03.999Z,19.50
2023-08-06T01:29:40.395Z,19.51
2023-08-06T01:32:14.005Z,19.47
2023-08-06T01:34:47.091Z,19.46
2023-08-06T01:37:17.980Z,19.43
2023-08-06T01:39:47.248Z,19.45
2023-08-06T01:42:16.383Z,19.52
2023-08-06T01:44:45.690Z,19.51
2023-08-06T01:47:14.770Z,19.50
2023-08-06T01:49:43.949Z,19.46
2023-08-06T01:52:13.032Z,19.46
2023-08-06T01:54:43.480Z,19.41
2023-08-06T01:57:13.686Z,19.47
2023-08-06T01:59:42.752Z,19.47
2023-08-06T02:02:12.090Z,19.33
2023-08-06T02:04:41.423Z,19.32
2023-08-06T02:07:10.582Z,19.46
2023-08-06T02:09:41.247Z,19.47
2023-08-06T02:12:11.865Z,19.39
2023-08-06T02:14:41.155Z,19.39
2023-08-06T02:17:10.339Z,19.38
2023-08-06T02:19:39.640Z,19.37
2023-08-06T02:22:08.772Z,19.31
2023-08-06T02:24:37.922Z,19.37
2023-08-06T02:27:07.335Z,19.32
2023-08-06T02:29:37.816Z,19.40
2023-08-06T02:32:08.837Z,19.32
2023-08-06T02:34:38.293Z,19.34
2023-08-06T02:37:07.659Z,19.34
2023-08-06T02:39:40.544Z,19.32
2023-08-06T02:42:10.425Z,19.30
2023-08-06T02:44:41.007Z,19.31
2023-08-06T02:47:10.158Z,19.31
2023-08-06T02:49:39.327Z,19.29
2023-08-06T02:52:09.365Z,19.27
2023-08-06T02:54:38.690Z,19.30
2023-08-06T02:57:09.054Z,19.21
2023-08-06T02:59:40.300Z,19.28
2023-08-06T03:02:14.044Z,19.27
2023-08-06T03:05:07.305Z,19.29
2023-08-06T03:07:40.425Z,19.30
2023-08-06T03:10:16.654Z,19.30
2023-08-06T03:12:46.941Z,19.30
2023-08-06T03:15:17.646Z,19.27
2023-08-06T03:17:48.097Z,19.33
2023-08-06T03:20:19.720Z,19.23
2023-08-06T03:22:48.826Z,19.31
2023-08-06T03:25:19.188Z,19.31
2023-08-06T03:27:51.312Z,19.26
2023-08-06T03:30:23.448Z,19.29
2023-08-06T03:32:55.541Z,19.28
2023-08-06T03:35:25.320Z,19.22
2023-08-06T03:37:55.080Z,19.26
2023-08-06T03:40:24.296Z,19.21
2023-08-06T03:42:53.506Z,19.27
2023-08-06T03:45:24.053Z,19.33
2023-08-06T03:47:53.643Z,19.29
2023-08-06T03:50:22.752Z,19.28
2023-08-06T03:52:51.867Z,19.22
2023-08-06T03:55:20.940Z,19.33
2023-08-06T03:57:50.033Z,19.31
2023-08-06T04:00:19.573Z,19.32
2023-08-06T04:02:55.857Z,19.34
2023-08-06T04:05:25.013Z,19.32
2023-08-06T04:07:54.308Z,19.30
2023-08-06T04:10:23.436Z,19.34
2023-08-06T04:12:52.514Z,19.32
2023-08-06T04:15:21.608Z,19.30
2023-08-06T04:17:50.773Z,19.31
2023-08-06T04:20:21.279Z,19.35
2023-08-06T04:22:50.373Z,19.29
2023-08-06T04:25:22.135Z,19.36
2023-08-06T04:27:51.342Z,19.31
2023-08-06T04:30:20.411Z,19.33
2023-08-06T04:32:49.524Z,19.36
2023-08-06T04:35:19.227Z,19.28
2023-08-06T04:37:49.744Z,19.27
2023-08-06T04:40:19.032Z,19.30
2023-08-06T04:42:48.175Z,19.28
2023-08-06T04:45:17.574Z,19.30
2023-08-06T04:47:46.626Z,19.33
2023-08-06T04:50:15.862Z,19.33
2023-08-06T04:52:44.889Z,19.32
2023-08-06T04:55:15.388Z,19.34
2023-08-06T04:57:44.448Z,19.33
2023-08-06T05:00:13.941Z,19.38
2023-08-06T05:02:43.043Z,19.35
2023-08-06T05:05:12.138Z,19.36
2023-08-06T05:07:41.205Z,19.33
2023-08-06T05:10:10.702Z,19.33
2023-08-06T05:12:41.193Z,19.30
2023-08-06T05:15:11.107Z,19.34
2023-08-06T05:17:40.183Z,19.32
2023-08-06T05:20:09.936Z,19.33
2023-08-06T05:22:39.050Z,19.34
2023-08-06T05:25:08.917Z,19.37
2023-08-06T05:27:38.018Z,19.40
2023-08-06T05:30:09.993Z,19.39
2023-08-06T05:32:39.163Z,19.37
2023-08-06T05:35:08.949Z,19.34
2023-08-06T05:37:38.033Z,19.39
2023-08-06T05:40:07.951Z,19.36
2023-08-06T05:42:37.042Z,19.38
2023-08-06T05:45:11.432Z,19.38
2023-08-06T05:47:40.552Z,19.41
2023-08-06T05:50:11.053Z,19.36
2023-08-06T05:52:40.128Z,19.38
2023-08-06T05:55:10.162Z,19.37
2023-08-06T05:57:39.282Z,19.38
2023-08-06T06:00:11.017Z,19.31
2023-08-06T06:02:42.701Z,19.30
2023-08-06T06:05:12.210Z,19.40
2023-08-06T06:07:41.291Z,19.37
2023-08-06T06:10:11.816Z,19.36
2023-08-06T06:12:41.402Z,19.39
2023-08-06T06:15:12.281Z,19.35
2023-08-06T06:17:41.380Z,19.33
2023-08-06T06:20:11.138Z,19.37
2023-08-06T06:22:40.392Z,19.36
2023-08-06T06:25:10.897Z,19.39
2023-08-06T06:27:39.928Z,19.36
2023-08-06T06:30:13.262Z,19.37
2023-08-06T06:32:42.379Z,19.37
2023-08-06T06:35:12.586Z,19.37
2023-08-06T06:37:41.633Z,19.36
2023-08-06T06:40:11.364Z,19.37
2023-08-06T06:42:40.404Z,19.41
2023-08-06T06:45:12.979Z,19.39
2023-08-06T06:47:42.120Z,19.38
2023-08-06T06:50:11.811Z,19.37
2023-08-06T06:52:40.973Z,19.38
2023-08-06T06:55:10.569Z,19.40
2023-08-06T06:57:39.671Z,19.37
2023-08-06T07:00:09.657Z,19.34
2023-08-06T07:02:40.601Z,19.35
2023-08-06T07:05:10.751Z,19.31
2023-08-06T07:07:39.842Z,19.38
2023-08-06T07:10:09.817Z,19.38
2023-08-06T07:12:39.093Z,19.38
2023-08-06T07:15:09.180Z,19.33
2023-08-06T07:17:39.800Z,19.35
2023-08-06T07:20:10.018Z,19.35
2023-08-06T07:22:39.108Z,19.33
2023-08-06T07:25:08.963Z,19.33
2023-08-06T07:27:38.352Z,19.33
2023-08-06T07:30:08.627Z,19.33
2023-08-06T07:32:39.053Z,19.28
2023-08-06T07:35:10.693Z,19.32
2023-08-06T07:37:39.739Z,19.35
2023-08-06T07:40:09.838Z,19.36
2023-08-06T07:42:39.036Z,19.34
2023-08-06T07:45:10.333Z,19.47
2023-08-06T07:47:40.768Z,19.46
2023-08-06T07:50:10.302Z,19.46
2023-08-06T07:52:39.374Z,19.46
2023-08-06T07:55:08.975Z,19.45
2023-08-06T07:57:39.224Z,19.53
2023-08-06T08:00:10.617Z,19.52
2023-08-06T08:02:44.401Z,19.45
2023-08-06T08:05:13.503Z,19.47
2023-08-06T08:07:42.541Z,19.43
2023-08-06T08:10:11.899Z,19.44
2023-08-06T08:12:41.236Z,19.49
2023-08-06T08:15:11.066Z,19.50
2023-08-06T08:17:40.339Z,19.44
2023-08-06T08:20:11.716Z,19.45
2023-08-06T08:22:40.797Z,19.41
2023-08-06T08:25:10.100Z,19.42
2023-08-06T08:27:39.211Z,19.43
2023-08-06T08:30:09.332Z,19.42
2023-08-06T08:32:38.428Z,19.41
2023-08-06T08:35:07.757Z,19.31
2023-08-06T08:37:38.263Z,19.41
2023-08-06T08:40:08.734Z,19.42
2023-08-06T08:42:38.544Z,19.42
2023-08-06T08:45:13.213Z,19.39
2023-08-06T08:47:44.248Z,19.41
2023-08-06T08:50:15.276Z,19.46
2023-08-06T08:52:47.617Z,19.44
2023-08-06T08:55:17.865Z,19.45
2023-08-06T08:57:46.918Z,19.41
2023-08-06T09:00:16.390Z,19.44
2023-08-06T09:02:47.910Z,19.48
2023-08-06T09:05:19.069Z,19.45
2023-08-06T09:07:51.612Z,19.38
2023-08-06T09:10:24.674Z,19.46
2023-08-06T09:12:55.520Z,19.44
2023-08-06T09:15:26.884Z,19.37
2023-08-06T09:17:56.910Z,19.32
2023-08-06T09:20:25.959Z,19.25
2023-08-06T09:22:56.692Z,19.26
2023-08-06T09:25:28.021Z,19.23
2023-08-06T09:27:57.359Z,19.22
2023-08-06T09:30:34.430Z,19.15
2023-08-06T09:33:04.009Z,19.14
2023-08-06T09:35:34.044Z,19.22
2023-08-06T09:38:12.848Z,19.17
2023-08-06T09:40:42.797Z,19.13
2023-08-06T09:43:14.233Z,19.14
2023-08-06T09:45:45.051Z,19.12
2023-08-06T09:48:14.187Z,19.09
2023-08-06T09:50:43.212Z,19.15
2023-08-06T09:53:15.799Z,19.18
2023-08-06T09:55:45.436Z,19.18
2023-08-06T09:58:15.629Z,19.13
2023-08-06T10:00:45.208Z,19.03
2023-08-06T10:03:15.862Z,19.06
2023-08-06T10:05:48.977Z,19.01
2023-08-06T10:08:19.830Z,19.00
2023-08-06T10:10:49.196Z,18.99
2023-08-06T10:13:23.633Z,19.03
2023-08-06T10:15:54.990Z,19.01
2023-08-06T10:18:25.565Z,18.97
2023-08-06T10:20:55.284Z,18.99
2023-08-06T10:23:36.733Z,18.96
2023-08-06T10:26:06.176Z,18.95
2023-08-06T10:28:39.944Z,18.94
2023-08-06T10:31:09.232Z,18.92
2023-08-06T10:33:43.491Z,18.93
2023-08-06T10:36:13.206Z,18.90
2023-08-06T10:38:51.768Z,18.97
2023-08-06T10:41:29.952Z,19.03
2023-08-06T10:44:09.383Z,19.13
2023-08-06T10:46:40.030Z,19.18
2023-08-06T10:49:09.608Z,19.15
2023-08-06T10:51:39.330Z,19.19
2023-08-06T10:54:10.022Z,19.23
2023-08-06T10:56:43.390Z,19.28
2023-08-06T10:59:12.656Z,19.33
2023-08-06T11:01:41.732Z,19.40
2023-08-06T11:04:16.986Z,19.35
2023-08-06T11:06:46.116Z,19.42
2023-08-06T11:09:17.637Z,19.44
2023-08-06T11:11:46.668Z,19.52
2023-08-06T11:14:17.722Z,19.52
2023-08-06T11:16:47.080Z,19.56
2023-08-06T11:19:17.250Z,19.59
2023-08-06T11:21:48.587Z,19.62
2023-08-06T11:24:19.826Z,19.67
2023-08-06T11:26:48.886Z,19.64
2023-08-06T11:29:18.184Z,19.66
2023-08-06T11:31:47.363Z,19.68
2023-08-06T11:34:17.964Z,19.70
2023-08-06T11:36:47.278Z,19.75
2023-08-06T11:39:18.391Z,19.73
2023-08-06T11:41:49.272Z,19.76
2023-08-06T11:44:23.896Z,19.85
2023-08-06T11:46:54.526Z,19.87
2023-08-06T11:49:40.028Z,19.86
2023-08-06T11:52:15.352Z,19.82
2023-08-06T11:54:45.865Z,19.85
2023-08-06T11:57:18.162Z,19.90
2023-08-06T11:59:47.650Z,19.87
2023-08-06T12:02:18.161Z,19.90
2023-08-06T12:05:05.850Z,19.91
2023-08-06T12:07:39.644Z,19.87
2023-08-06T12:10:11.126Z,19.92
2023-08-06T12:12:43.789Z,19.91
2023-08-06T12:15:13.559Z,19.93
2023-08-06T12:17:42.914Z,20.02
2023-08-06T12:20:12.867Z,20.03
2023-08-06T12:22:42.214Z,20.04
2023-08-06T12:25:14.017Z,20.04
2023-08-06T12:27:44.403Z,20.04
2023-08-06T12:30:14.810Z,20.08
2023-08-06T12:32:43.987Z,19.95
2023-08-06T12:35:13.231Z,20.04
2023-08-06T12:37:43.402Z,20.06
2023-08-06T12:42:46.181Z,20.05
2023-08-06T12:45:15.594Z,20.01
2023-08-06T12:47:44.769Z,19.93
2023-08-06T12:50:13.934Z,19.93
2023-08-06T12:52:43.029Z,19.95
2023-08-06T12:55:13.640Z,20.02
2023-08-06T12:57:57.488Z,19.97
2023-08-06T13:00:28.907Z,19.98
2023-08-06T13:02:58.912Z,20.00
2023-08-06T13:05:29.136Z,20.01
2023-08-06T13:07:58.283Z,19.94
2023-08-06T13:10:30.280Z,20.03
2023-08-06T13:12:59.395Z,20.00
2023-08-06T13:15:28.554Z,20.02
2023-08-06T13:17:57.621Z,19.97
2023-08-06T13:20:26.994Z,19.90
2023-08-06T13:22:57.252Z,19.80
2023-08-06T13:25:29.357Z,19.77
2023-08-06T13:27:58.494Z,19.79
2023-08-06T13:30:27.619Z,19.79
2023-08-06T13:32:57.863Z,19.80
2023-08-06T13:35:26.966Z,19.79
2023-08-06T13:37:56.281Z,19.79
2023-08-06T13:40:25.341Z,19.78
2023-08-06T13:42:55.801Z,19.72
2023-08-06T13:45:26.740Z,19.75
2023-08-06T13:47:57.506Z,19.77
2023-08-06T13:50:27.694Z,19.80
2023-08-06T13:52:56.835Z,19.78
2023-08-06T13:55:25.895Z,19.82
2023-08-06T13:57:56.335Z,19.81
2023-08-06T14:00:25.413Z,19.88
2023-08-06T14:02:54.525Z,19.90
2023-08-06T14:05:23.584Z,19.96
2023-08-06T14:07:52.622Z,19.95
2023-08-06T14:10:21.649Z,19.97
2023-08-06T14:13:01.585Z,19.98
2023-08-06T14:15:41.528Z,20.02
2023-08-06T14:18:10.802Z,20.03
2023-08-06T14:20:39.948Z,20.04
2023-08-06T14:23:09.769Z,20.06
2023-08-06T14:25:39.388Z,20.04
2023-08-06T14:28:09.111Z,20.08
2023-08-06T14:30:39.578Z,20.14
2023-08-06T14:33:24.656Z,20.10
2023-08-06T14:35:55.816Z,20.16
2023-08-06T14:38:24.908Z,20.11
2023-08-06T14:40:53.997Z,20.16
2023-08-06T14:43:23.050Z,20.17
2023-08-06T14:45:53.469Z,20.16
2023-08-06T14:48:22.670Z,20.20
2023-08-06T14:50:51.737Z,20.22
2023-08-06T14:53:20.804Z,20.22
2023-08-06T14:55:50.371Z,20.27
2023-08-06T14:58:19.454Z,20.16
2023-08-06T15:00:48.600Z,20.20
2023-08-06T15:03:19.080Z,20.14
2023-08-06T15:05:49.871Z,20.09
2023-08-06T15:08:19.919Z,20.09
2023-08-06T15:10:52.813Z,20.09
2023-08-06T15:13:22.230Z,20.14
2023-08-06T15:15:52.098Z,20.14
2023-08-06T15:18:22.549Z,20.18
2023-08-06T15:20:51.625Z,20.18
2023-08-06T15:23:20.854Z,20.22
2023-08-06T15:25:49.932Z,20.30
2023-08-06T15:28:19.438Z,20.26
2023-08-06T15:30:52.048Z,20.29
2023-08-06T15:33:23.447Z,20.27
2023-08-06T15:35:52.530Z,20.28
2023-08-06T15:38:21.600Z,20.31
2023-08-06T15:40:50.629Z,20.32
2023-08-06T15:43:19.713Z,20.31
2023-08-06T15:45:48.911Z,20.28
2023-08-06T15:48:18.003Z,20.35
2023-08-06T15:50:48.448Z,20.33
2023-08-06T15:53:17.520Z,20.35
2023-08-06T15:55:48.598Z,20.33
2023-08-06T15:58:17.738Z,20.35
2023-08-06T16:00:46.925Z,20.39
2023-08-06T16:03:16.745Z,20.39
2023-08-06T16:05:45.874Z,20.36
2023-08-06T16:08:18.254Z,20.36
2023-08-06T16:10:47.742Z,20.42
2023-08-06T16:13:17.810Z,20.25
2023-08-06T16:15:46.916Z,20.19
2023-08-06T16:18:15.975Z,20.19
2023-08-06T16:20:45.431Z,20.15
2023-08-06T16:23:14.521Z,20.10
2023-08-06T16:25:48.426Z,20.10
2023-08-06T16:28:17.895Z,20.05
2023-08-06T16:30:47.692Z,20.03
2023-08-06T16:33:16.859Z,20.03
2023-08-06T16:35:45.974Z,20.00
2023-08-06T16:38:16.550Z,20.00
2023-08-06T16:40:55.405Z,19.97
2023-08-06T16:43:26.036Z,20.02
2023-08-06T16:45:56.807Z,19.98
2023-08-06T16:48:28.474Z,19.95
2023-08-06T16:51:00.416Z,19.96
2023-08-06T16:53:30.141Z,19.91
2023-08-06T16:56:01.021Z,19.88
2023-08-06T16:58:30.073Z,19.92
2023-08-06T17:01:04.529Z,19.89
2023-08-06T17:03:34.862Z,19.89
2023-08-06T17:06:05.205Z,19.83
2023-08-06T17:08:35.585Z,19.93
2023-08-06T17:11:07.774Z,19.94
2023-08-06T17:13:37.725Z,19.95
2023-08-06T17:16:07.022Z,20.03
2023-08-06T17:18:36.251Z,20.05
2023-08-06T17:21:06.403Z,20.02
2023-08-06T17:23:35.789Z,19.99
2023-08-06T17:26:06.522Z,20.01
2023-08-06T17:28:35.841Z,19.93
2023-08-06T17:31:07.854Z,20.03
2023-08-06T17:33:37.158Z,19.97
2023-08-06T17:36:06.764Z,19.95
2023-08-06T17:38:36.498Z,19.97
2023-08-06T17:41:07.338Z,19.96
2023-08-06T17:43:36.645Z,19.89
2023-08-06T17:46:06.003Z,19.83
2023-08-06T17:48:35.243Z,19.88
2023-08-06T17:51:04.585Z,19.93
2023-08-06T17:53:35.106Z,19.91
2023-08-06T17:56:04.345Z,19.92
2023-08-06T17:58:35.391Z,19.89
2023-08-06T18:01:04.760Z,19.95
2023-08-06T18:03:34.839Z,19.89
2023-08-06T18:06:04.206Z,19.87
2023-08-06T18:08:33.302Z,19.76
2023-08-06T18:11:02.555Z,19.76
2023-08-06T18:13:31.955Z,19.69
2023-08-06T18:16:03.136Z,19.68
2023-08-06T18:18:32.649Z,19.68
2023-08-06T18:21:01.742Z,19.65
2023-08-06T18:23:30.871Z,19.72
2023-08-06T18:26:00.319Z,19.70
2023-08-06T18:28:29.423Z,19.73
2023-08-06T18:30:58.857Z,19.68
2023-08-06T18:33:30.185Z,19.62
2023-08-06T18:35:59.418Z,19.66
2023-08-06T18:38:29.104Z,19.66
2023-08-06T18:40:59.640Z,19.66
2023-08-06T18:43:29.828Z,19.64
2023-08-06T18:45:59.590Z,19.63
2023-08-06T18:48:30.362Z,19.57
2023-08-06T18:50:59.552Z,19.62
2023-08-06T18:53:29.283Z,19.61
2023-08-06T18:55:59.185Z,19.62
2023-08-06T18:58:28.366Z,19.54
2023-08-06T19:00:58.530Z,19.55
2023-08-06T19:03:29.664Z,19.58
2023-08-06T19:06:03.404Z,19.49
2023-08-06T19:08:33.511Z,19.53
2023-08-06T19:11:02.810Z,19.53
2023-08-06T19:13:32.257Z,19.47
2023-08-06T19:16:01.948Z,19.50
2023-08-06T19:18:32.679Z,19.52
2023-08-06T19:21:01.953Z,19.48
2023-08-06T19:23:31.052Z,19.40
2023-08-06T19:26:02.129Z,19.44
2023-08-06T19:28:31.345Z,19.42
2023-08-06T19:31:00.980Z,19.47
2023-08-06T19:33:30.086Z,19.44
2023-08-06T19:36:00.628Z,19.39
2023-08-06T19:38:30.074Z,19.39
2023-08-06T19:41:06.639Z,19.38
2023-08-06T19:43:37.043Z,19.31
2023-08-06T19:46:06.751Z,19.38
2023-08-06T19:48:36.088Z,19.37
2023-08-06T19:51:06.553Z,19.40
2023-08-06T19:53:37.269Z,19.35
2023-08-06T19:56:06.965Z,19.28
2023-08-06T19:58:36.441Z,19.35
2023-08-06T20:01:07.341Z,19.30
2023-08-06T20:03:38.893Z,19.31
2023-08-06T20:06:09.638Z,19.22
2023-08-06T20:08:38.746Z,19.30
2023-08-06T20:11:07.845Z,19.30
2023-08-06T20:13:37.057Z,19.32
2023-08-06T20:16:07.093Z,19.30
2023-08-06T20:18:36.455Z,19.26
2023-08-06T20:21:06.219Z,19.27
2023-08-06T20:23:36.753Z,19.20
2023-08-06T20:26:05.845Z,19.20
2023-08-06T20:28:35.240Z,19.19
2023-08-06T20:31:04.659Z,19.21
2023-08-06T20:33:34.447Z,19.26
2023-08-06T20:36:03.907Z,19.25
2023-08-06T20:38:33.197Z,19.24
2023-08-06T20:41:06.511Z,19.18
2023-08-06T20:43:35.689Z,19.16
2023-08-06T20:46:06.270Z,19.20
2023-08-06T20:48:35.625Z,19.16
2023-08-06T20:51:04.945Z,19.19
2023-08-06T20:53:34.277Z,19.20
2023-08-06T20:56:05.192Z,19.21
2023-08-06T20:58:35.811Z,19.21
2023-08-06T21:01:04.976Z,19.10
2023-08-06T21:03:34.094Z,19.12
2023-08-06T21:06:05.643Z,19.15
2023-08-06T21:08:37.544Z,19.12
2023-08-06T21:11:08.522Z,19.10
2023-08-06T21:13:39.688Z,19.09
2023-08-06T21:16:08.979Z,19.13
2023-08-06T21:18:38.250Z,19.08
2023-08-06T21:21:07.951Z,19.06
2023-08-06T21:23:37.566Z,19.06
2023-08-06T21:26:08.903Z,19.08
2023-08-06T21:28:41.705Z,19.08
2023-08-06T21:31:12.399Z,19.03
2023-08-06T21:33:44.362Z,19.06
2023-08-06T21:36:13.630Z,19.06
2023-08-06T21:38:43.244Z,19.05
2023-08-06T21:41:14.045Z,19.04
2023-08-06T21:43:48.009Z,19.05
2023-08-06T21:46:19.103Z,19.02
2023-08-06T21:48:50.531Z,19.03
2023-08-06T21:51:21.844Z,19.04
2023-08-06T21:53:51.673Z,19.04
2023-08-06T21:56:21.315Z,18.99
2023-08-06T21:58:53.549Z,18.98
2023-08-06T22:01:23.072Z,18.98
2023-08-06T22:03:52.281Z,18.97
2023-08-06T22:06:21.604Z,18.99
2023-08-06T22:08:50.831Z,19.00
2023-08-06T22:11:20.156Z,18.92
2023-08-06T22:13:50.562Z,18.95
2023-08-06T22:16:21.509Z,18.96
2023-08-06T22:18:50.579Z,18.96
2023-08-06T22:21:19.985Z,18.97
2023-08-06T22:23:49.105Z,18.94
2023-08-06T22:26:18.211Z,18.94
2023-08-06T22:28:59.558Z,18.92
2023-08-06T22:31:31.677Z,18.89
2023-08-06T22:34:00.891Z,18.93
2023-08-06T22:36:30.076Z,18.83
2023-08-06T22:38:59.264Z,18.89
2023-08-06T22:41:28.509Z,18.90
2023-08-06T22:43:57.609Z,18.92
2023-08-06T22:46:27.865Z,18.87
2023-08-06T22:48:58.643Z,18.85
2023-08-06T22:51:27.676Z,18.86
2023-08-06T22:53:56.893Z,18.83
2023-08-06T22:56:26.060Z,18.89
2023-08-06T22:58:56.579Z,18.87
2023-08-06T23:01:25.827Z,18.86
2023-08-06T23:03:55.188Z,18.85
2023-08-06T23:06:25.768Z,18.88
2023-08-06T23:08:54.858Z,18.81
2023-08-06T23:11:24.114Z,18.82
2023-08-06T23:13:53.259Z,18.82
2023-08-06T23:16:22.589Z,18.82
2023-08-06T23:18:51.813Z,18.82
2023-08-06T23:21:21.126Z,18.76
2023-08-06T23:23:51.806Z,18.79
2023-08-06T23:26:21.014Z,18.79
2023-08-06T23:28:50.242Z,18.78
2023-08-06T23:31:19.764Z,18.80
2023-08-06T23:33:49.027Z,18.73
2023-08-06T23:36:18.163Z,18.77
2023-08-06T23:38:47.260Z,18.79
2023-08-06T23:41:20.246Z,18.79
2023-08-06T23:43:49.576Z,18.73
2023-08-06T23:46:19.279Z,18.74
2023-08-06T23:48:53.025Z,18.72
2023-08-06T23:51:22.072Z,18.73
2023-08-06T23:53:51.407Z,18.72
2023-08-06T23:56:25.601Z,18.73
2023-08-06T23:58:55.015Z,18.74
